createdAt,value
2023-03-06T00:03:06.658Z,2.07
2023-03-06T00:05:36.572Z,2.87
2023-03-06T00:08:07.152Z,2.25
2023-03-06T00:10:37.569Z,3.87
2023-03-06T00:13:09.583Z,2.30
2023-03-06T00:15:38.889Z,4.20
2023-03-06T00:18:07.877Z,3.67
2023-03-06T00:20:38.063Z,2.20
2023-03-06T00:23:08.257Z,3.05
2023-03-06T00:30:36.192Z,3.55
2023-03-06T00:33:07.586Z,11.37
2023-03-06T00:35:37.403Z,9.23
2023-03-06T00:38:05.167Z,3.47
2023-03-06T00:40:37.221Z,7.57
2023-03-06T00:43:04.926Z,13.47
2023-03-06T00:45:32.746Z,4.00
2023-03-06T00:48:05.044Z,3.57
2023-03-06T00:50:35.186Z,2.10
2023-03-06T00:53:03.033Z,12.77
2023-03-06T00:55:35.385Z,1.90
2023-03-06T00:58:03.183Z,5.70
2023-03-06T01:00:30.916Z,6.23
2023-03-06T01:03:01.024Z,1.43
2023-03-06T01:05:28.938Z,2.35
2023-03-06T01:07:58.012Z,3.30
2023-03-06T01:10:29.095Z,3.30
2023-03-06T01:12:57.047Z,1.43
2023-03-06T01:15:24.989Z,1.80
2023-03-06T01:17:57.301Z,2.13
2023-03-06T01:20:25.474Z,1.13
2023-03-06T01:22:54.564Z,3.17
2023-03-06T01:25:28.623Z,3.17
2023-03-06T01:27:56.388Z,2.23
2023-03-06T01:30:24.196Z,3.00
2023-03-06T01:32:56.192Z,2.40
2023-03-06T01:35:23.977Z,4.53
2023-03-06T01:37:51.722Z,2.97
2023-03-06T01:40:25.137Z,2.53
2023-03-06T01:42:55.197Z,2.27
2023-03-06T01:46:02.035Z,5.22
2023-03-06T01:48:32.188Z,4.60
2023-03-06T01:51:00.113Z,6.65
2023-03-06T01:53:28.010Z,4.10
2023-03-06T01:55:59.247Z,3.73
2023-03-06T01:58:26.995Z,2.50
2023-03-06T02:00:56.693Z,1.87
2023-03-06T02:03:29.494Z,2.05
2023-03-06T02:05:57.617Z,3.17
2023-03-06T02:08:28.201Z,3.23
2023-03-06T02:11:09.570Z,2.80
2023-03-06T02:13:41.318Z,3.83
2023-03-06T02:16:11.384Z,7.23
2023-03-06T02:18:40.779Z,2.25
2023-03-06T02:21:16.945Z,1.73
2023-03-06T02:23:55.333Z,1.90
2023-03-06T02:26:31.553Z,1.93
2023-03-06T02:29:01.896Z,2.83
2023-03-06T02:34:32.711Z,3.10
2023-03-06T02:37:04.038Z,4.40
2023-03-06T02:39:40.924Z,4.67
2023-03-06T02:42:10.119Z,3.43
2023-03-06T02:44:40.209Z,4.90
2023-03-06T02:47:08.089Z,2.97
2023-03-06T02:49:35.818Z,5.00
2023-03-06T02:52:07.351Z,2.87
2023-03-06T02:54:35.242Z,5.03
2023-03-06T02:57:03.052Z,3.50
2023-03-06T02:59:34.050Z,4.30
2023-03-06T03:02:03.949Z,6.60
2023-03-06T03:04:31.715Z,2.58
2023-03-06T03:07:01.720Z,3.37
2023-03-06T03:09:31.463Z,2.53
2023-03-06T03:12:01.224Z,4.55
2023-03-06T03:14:36.135Z,5.15
2023-03-06T03:17:04.631Z,3.27
2023-03-06T03:19:34.688Z,3.43
2023-03-06T03:22:04.321Z,2.30
2023-03-06T03:24:32.178Z,3.95
2023-03-06T03:27:02.224Z,3.53
2023-03-06T03:29:30.040Z,3.33
2023-03-06T03:31:59.193Z,1.97
2023-03-06T03:34:29.815Z,3.77
2023-03-06T03:36:59.438Z,3.37
2023-03-06T03:39:27.248Z,2.53
2023-03-06T03:41:57.374Z,2.50
2023-03-06T03:44:27.162Z,5.88
2023-03-06T03:46:54.914Z,2.50
2023-03-06T03:49:24.187Z,3.57
2023-03-06T03:51:53.823Z,2.17
2023-03-06T03:54:21.610Z,2.17
2023-03-06T03:56:51.728Z,3.07
2023-03-06T03:59:21.591Z,2.53
2023-03-06T04:01:52.335Z,3.22
2023-03-06T04:04:22.434Z,3.17
2023-03-06T04:06:53.415Z,2.15
2023-03-06T04:09:21.299Z,1.57
2023-03-06T04:11:51.390Z,2.03
2023-03-06T04:14:21.062Z,2.78
2023-03-06T04:16:51.053Z,2.40
2023-03-06T04:19:18.878Z,3.88
2023-03-06T04:21:48.461Z,1.83
2023-03-06T04:24:19.528Z,2.10
2023-03-06T04:26:47.231Z,3.77
2023-03-06T04:29:15.244Z,3.33
2023-03-06T04:31:45.271Z,2.10
2023-03-06T04:34:13.062Z,3.08
2023-03-06T04:36:47.041Z,2.87
2023-03-06T04:39:18.412Z,3.20
2023-03-06T04:41:46.194Z,5.33
2023-03-06T04:44:16.362Z,2.30
2023-03-06T04:46:48.226Z,1.13
2023-03-06T04:49:15.975Z,3.33
2023-03-06T04:51:43.880Z,1.67
2023-03-06T04:54:12.073Z,3.10
2023-03-06T04:56:41.175Z,1.87
2023-03-06T04:59:11.256Z,2.00
2023-03-06T05:01:39.134Z,3.45
2023-03-06T05:04:06.909Z,3.20
2023-03-06T05:06:36.565Z,2.80
2023-03-06T05:09:06.559Z,2.17
2023-03-06T05:11:34.295Z,2.20
2023-03-06T05:14:05.292Z,5.70
2023-03-06T05:16:35.344Z,2.33
2023-03-06T05:19:03.409Z,2.13
2023-03-06T05:21:33.039Z,1.77
2023-03-06T05:24:00.792Z,3.95
2023-03-06T05:26:30.765Z,2.23
2023-03-06T05:29:00.452Z,1.58
2023-03-06T05:31:29.602Z,2.33
2023-03-06T05:34:00.657Z,2.60
2023-03-06T05:36:28.482Z,2.40
2023-03-06T05:38:56.231Z,4.17
2023-03-06T05:41:26.190Z,2.60
2023-03-06T05:43:55.937Z,1.67
2023-03-06T05:46:23.760Z,2.78
2023-03-06T05:48:55.427Z,1.83
2023-03-06T05:51:25.071Z,1.67
2023-03-06T05:53:55.158Z,2.35
2023-03-06T05:56:22.943Z,3.15
2023-03-06T05:58:53.578Z,0.90
2023-03-06T06:01:25.483Z,1.70
2023-03-06T06:03:56.996Z,2.63
2023-03-06T06:06:27.146Z,1.60
2023-03-06T06:08:55.007Z,4.85
2023-03-06T06:11:26.604Z,4.53
2023-03-06T06:13:56.580Z,3.17
2023-03-06T06:16:24.302Z,2.40
2023-03-06T06:18:54.182Z,1.13
2023-03-06T06:21:23.381Z,4.07
2023-03-06T06:23:51.282Z,3.23
2023-03-06T06:26:21.109Z,1.60
2023-03-06T06:28:48.950Z,2.70
2023-03-06T06:31:16.783Z,5.83
2023-03-06T06:33:45.434Z,2.97
2023-03-06T06:36:20.804Z,1.87
2023-03-06T06:38:51.991Z,2.27
2023-03-06T06:44:15.709Z,1.60
2023-03-06T06:49:36.414Z,1.50
2023-03-06T06:52:04.380Z,1.10
2023-03-06T06:54:34.384Z,2.70
2023-03-06T06:57:04.334Z,1.65
2023-03-06T06:59:34.312Z,1.77
2023-03-06T07:02:02.077Z,3.58
2023-03-06T07:04:32.412Z,1.60
2023-03-06T07:09:31.369Z,0.60
2023-03-06T07:12:02.511Z,0.87
2023-03-06T07:14:32.417Z,1.63
2023-03-06T07:17:00.116Z,1.65
2023-03-06T07:19:28.031Z,1.97
2023-03-06T07:22:00.125Z,3.60
2023-03-06T07:24:30.541Z,1.77
2023-03-06T07:29:27.288Z,3.80
2023-03-06T07:31:55.362Z,1.43
2023-03-06T07:34:23.119Z,1.70
2023-03-06T07:36:53.112Z,2.37
2023-03-06T07:39:22.830Z,1.08
2023-03-06T07:41:52.142Z,1.95
2023-03-06T07:44:22.298Z,4.57
2023-03-06T07:46:53.559Z,2.15
2023-03-06T07:49:21.340Z,2.80
2023-03-06T07:51:50.639Z,1.83
2023-03-06T07:54:18.420Z,1.03
2023-03-06T07:56:46.142Z,1.83
2023-03-06T07:59:16.287Z,2.60
2023-03-06T08:01:44.058Z,2.95
2023-03-06T08:04:13.211Z,4.00
2023-03-06T08:06:45.469Z,3.37
2023-03-06T08:09:13.243Z,2.53
2023-03-06T08:11:43.885Z,3.90
2023-03-06T08:14:15.709Z,5.23
2023-03-06T08:16:43.488Z,2.93
2023-03-06T08:19:11.215Z,3.03
2023-03-06T08:21:40.630Z,3.73
2023-03-06T08:24:08.700Z,2.70
2023-03-06T08:26:36.651Z,1.17
2023-03-06T08:29:04.892Z,2.47
2023-03-06T08:31:35.527Z,2.43
2023-03-06T08:34:06.461Z,2.07
2023-03-06T08:36:34.709Z,2.93
2023-03-06T08:39:04.865Z,3.37
2023-03-06T08:41:32.918Z,1.35
2023-03-06T08:44:00.900Z,3.90
2023-03-06T08:46:30.673Z,2.80
2023-03-06T08:48:59.091Z,2.95
2023-03-06T08:51:28.006Z,2.17
2023-03-06T08:53:56.421Z,1.57
2023-03-06T08:56:29.501Z,3.83
2023-03-06T08:58:58.833Z,2.00
2023-03-06T09:01:28.800Z,1.93
2023-03-06T09:03:58.396Z,3.47
2023-03-06T09:06:27.799Z,2.22
2023-03-06T09:08:57.721Z,3.35
2023-03-06T09:11:28.045Z,2.45
2023-03-06T09:13:56.709Z,1.77
2023-03-06T09:16:24.831Z,4.63
2023-03-06T09:18:55.640Z,2.57
2023-03-06T09:21:24.892Z,1.97
2023-03-06T09:23:52.889Z,3.27
2023-03-06T09:26:21.288Z,3.10
2023-03-06T09:28:50.414Z,2.03
2023-03-06T09:31:20.739Z,4.73
2023-03-06T09:33:49.125Z,2.03
2023-03-06T09:36:18.440Z,3.70
2023-03-06T09:38:51.090Z,3.17
2023-03-06T09:41:30.108Z,2.03
2023-03-06T09:44:06.872Z,2.90
2023-03-06T09:46:48.390Z,1.80
2023-03-06T09:49:37.610Z,2.00
2023-03-06T09:52:19.037Z,3.70
2023-03-06T09:54:50.613Z,1.03
2023-03-06T09:57:23.082Z,1.97
2023-03-06T09:59:56.531Z,1.50
2023-03-06T10:02:31.766Z,4.17
2023-03-06T10:05:06.377Z,2.50
2023-03-06T10:07:45.571Z,3.23
2023-03-06T10:10:22.364Z,2.93
2023-03-06T10:12:58.726Z,1.07
2023-03-06T10:15:37.931Z,3.17
2023-03-06T10:18:06.358Z,2.17
2023-03-06T10:20:42.169Z,2.63
2023-03-06T10:23:30.079Z,2.73
2023-03-06T10:26:04.297Z,2.20
2023-03-06T10:28:38.144Z,2.67
2023-03-06T10:31:18.380Z,4.97
2023-03-06T10:33:55.368Z,2.17
2023-03-06T10:36:29.417Z,1.53
2023-03-06T10:39:00.857Z,2.57
2023-03-06T10:41:30.697Z,1.70
2023-03-06T10:44:25.535Z,1.38
2023-03-06T10:46:58.286Z,3.47
2023-03-06T10:49:34.516Z,2.27
2023-03-06T10:52:06.962Z,3.60
2023-03-06T10:54:36.794Z,4.57
2023-03-06T10:57:25.765Z,1.25
2023-03-06T10:59:55.681Z,1.40
2023-03-06T11:02:31.896Z,1.73
2023-03-06T11:05:03.348Z,1.73
2023-03-06T11:07:31.999Z,2.13
2023-03-06T11:10:05.698Z,0.50
2023-03-06T11:12:35.650Z,6.00
2023-03-06T11:15:13.805Z,2.67
2023-03-06T11:17:55.722Z,1.37
2023-03-06T11:20:41.228Z,1.90
2023-03-06T11:23:19.695Z,2.00
2023-03-06T11:25:58.095Z,0.80
2023-03-06T11:28:30.187Z,1.77
2023-03-06T11:31:08.878Z,1.90
2023-03-06T11:33:45.355Z,1.30
2023-03-06T11:36:18.588Z,1.77
2023-03-06T11:38:50.578Z,2.20
2023-03-06T11:41:29.862Z,0.43
2023-03-06T11:44:07.437Z,0.83
2023-03-06T11:46:46.960Z,1.87
2023-03-06T11:49:23.865Z,1.05
2023-03-06T11:51:58.154Z,1.67
2023-03-06T11:54:26.155Z,3.53
2023-03-06T11:57:01.235Z,3.13
2023-03-06T12:00:02.422Z,0.50
2023-03-06T12:02:58.355Z,0.93
2023-03-06T12:05:36.571Z,2.60
2023-03-06T12:08:18.826Z,2.07
2023-03-06T12:10:51.802Z,1.43
2023-03-06T12:13:40.011Z,1.43
2023-03-06T12:16:27.160Z,0.80
2023-03-06T12:19:01.766Z,1.70
2023-03-06T12:21:40.922Z,1.30
2023-03-06T12:24:21.380Z,1.53
2023-03-06T12:29:47.669Z,2.73
2023-03-06T12:32:28.116Z,2.80
2023-03-06T12:37:47.608Z,1.30
2023-03-06T12:40:32.827Z,2.53
2023-03-06T12:43:15.784Z,3.23
2023-03-06T12:45:46.927Z,1.13
2023-03-06T12:48:20.813Z,2.57
2023-03-06T12:50:53.640Z,0.50
2023-03-06T12:53:28.477Z,3.20
2023-03-06T12:55:58.314Z,4.53
2023-03-06T12:58:48.402Z,1.52
2023-03-06T13:01:39.865Z,1.00
2023-03-06T13:04:30.465Z,1.93
2023-03-06T13:09:45.948Z,1.10
2023-03-06T13:12:30.814Z,0.73
2023-03-06T13:15:00.853Z,1.27
2023-03-06T13:17:37.836Z,1.98
2023-03-06T13:20:30.595Z,2.47
2023-03-06T13:23:22.705Z,2.67
2023-03-06T13:25:51.881Z,1.17
2023-03-06T13:28:44.135Z,1.67
2023-03-06T13:31:26.101Z,0.93
2023-03-06T13:33:59.570Z,2.53
2023-03-06T13:36:31.553Z,1.20
2023-03-06T13:39:11.602Z,0.73
2023-03-06T13:41:55.264Z,1.60
2023-03-06T13:44:49.229Z,1.70
2023-03-06T13:50:35.724Z,1.67
2023-03-06T13:53:33.118Z,2.97
2023-03-06T13:56:14.376Z,2.17
2023-03-06T13:58:58.954Z,1.53
2023-03-06T14:01:44.994Z,0.93
2023-03-06T14:04:45.732Z,1.13
2023-03-06T14:07:25.898Z,4.03
2023-03-06T14:10:10.736Z,1.15
2023-03-06T14:12:44.066Z,2.83
2023-03-06T14:15:19.884Z,3.27
2023-03-06T14:17:59.210Z,3.03
2023-03-06T14:20:36.384Z,2.40
2023-03-06T14:23:23.056Z,3.50
2023-03-06T14:25:57.972Z,4.13
2023-03-06T14:28:29.423Z,2.27
2023-03-06T14:31:01.183Z,1.53
2023-03-06T14:33:33.160Z,1.07
2023-03-06T14:36:04.025Z,2.20
2023-03-06T14:38:38.648Z,0.93
2023-03-06T14:41:11.372Z,1.27
2023-03-06T14:43:44.461Z,1.30
2023-03-06T14:46:20.722Z,0.90
2023-03-06T14:48:52.116Z,1.23
2023-03-06T14:51:22.153Z,0.80
2023-03-06T14:53:52.041Z,1.35
2023-03-06T14:56:22.713Z,4.45
2023-03-06T14:58:58.557Z,2.60
2023-03-06T15:01:38.587Z,0.70
2023-03-06T15:04:17.575Z,0.57
2023-03-06T15:06:46.743Z,0.30
2023-03-06T15:09:20.539Z,0.50
2023-03-06T15:12:00.399Z,1.80
2023-03-06T15:14:36.430Z,1.50
2023-03-06T15:17:25.061Z,1.50
2023-03-06T15:19:56.830Z,0.63
2023-03-06T15:22:31.340Z,2.20
2023-03-06T15:25:19.627Z,2.27
2023-03-06T15:27:52.839Z,3.87
2023-03-06T15:30:30.854Z,1.37
2023-03-06T15:33:25.922Z,3.40
2023-03-06T15:35:57.085Z,1.70
2023-03-06T15:38:31.378Z,1.87
2023-03-06T15:41:00.940Z,2.27
2023-03-06T15:43:29.931Z,1.48
2023-03-06T15:46:03.405Z,0.77
2023-03-06T15:48:33.830Z,1.47
2023-03-06T15:53:31.382Z,1.67
2023-03-06T15:56:00.334Z,1.67
2023-03-06T15:58:35.680Z,3.83
2023-03-06T16:01:03.853Z,3.33
2023-03-06T16:03:33.219Z,8.77
2023-03-06T16:06:01.112Z,11.93
2023-03-06T16:08:29.042Z,6.23
2023-03-06T16:10:56.817Z,19.00
2023-03-06T16:13:28.506Z,36.90
2023-03-06T16:15:56.909Z,10.70
2023-03-06T16:18:24.710Z,12.67
2023-03-06T16:20:55.756Z,9.80
2023-03-06T16:23:23.926Z,16.47
2023-03-06T16:25:51.703Z,30.63
2023-03-06T16:28:21.368Z,14.47
2023-03-06T16:30:49.366Z,11.30
2023-03-06T16:33:17.080Z,8.07
2023-03-06T16:35:46.850Z,7.97
2023-03-06T16:38:16.737Z,8.88
2023-03-06T16:40:44.954Z,5.50
2023-03-06T16:43:13.674Z,6.70
2023-03-06T16:45:42.632Z,5.43
2023-03-06T16:48:15.904Z,3.57
2023-03-06T16:50:46.162Z,6.60
2023-03-06T16:53:14.312Z,4.43
2023-03-06T16:55:45.360Z,5.33
2023-03-06T16:58:15.383Z,14.43
2023-03-06T17:00:45.380Z,6.45
2023-03-06T17:03:13.417Z,6.93
2023-03-06T17:05:42.629Z,11.03
2023-03-06T17:08:16.006Z,15.97
2023-03-06T17:10:45.256Z,10.50
2023-03-06T17:13:13.222Z,28.10
2023-03-06T17:16:01.374Z,20.03
2023-03-06T17:18:29.761Z,19.67
2023-03-06T17:20:58.296Z,14.97
2023-03-06T17:23:30.746Z,10.43
2023-03-06T17:26:10.814Z,8.80
2023-03-06T17:28:40.063Z,4.78
2023-03-06T17:31:13.823Z,1.73
2023-03-06T17:33:42.320Z,99.67
2023-03-06T17:36:14.332Z,11.43
2023-03-06T17:38:42.470Z,4.80
2023-03-06T17:41:14.986Z,4.80
2023-03-06T17:43:44.859Z,4.70
2023-03-06T17:46:14.841Z,4.00
2023-03-06T17:48:44.542Z,4.88
2023-03-06T17:51:12.940Z,4.35
2023-03-06T17:53:42.936Z,22.80
2023-03-06T17:56:15.165Z,10.55
2023-03-06T17:58:42.913Z,29.33
2023-03-06T18:01:19.171Z,21.50
2023-03-06T18:03:49.123Z,11.00
2023-03-06T18:06:22.841Z,11.57
2023-03-06T18:08:52.826Z,6.27
2023-03-06T18:11:26.144Z,8.57
2023-03-06T18:13:53.927Z,4.53
2023-03-06T18:16:25.236Z,6.67
2023-03-06T18:18:56.100Z,3.70
2023-03-06T18:21:25.409Z,5.17
2023-03-06T18:23:53.420Z,5.97
2023-03-06T18:26:26.558Z,5.43
2023-03-06T18:28:58.039Z,3.97
2023-03-06T18:31:30.858Z,3.23
2023-03-06T18:34:01.841Z,3.00
2023-03-06T18:36:34.890Z,5.25
2023-03-06T18:39:03.622Z,3.30
2023-03-06T18:41:35.676Z,9.60
2023-03-06T18:44:05.316Z,11.43
2023-03-06T18:46:37.070Z,10.77
2023-03-06T18:49:05.661Z,10.70
2023-03-06T18:51:34.056Z,4.93
2023-03-06T18:54:03.909Z,6.93
2023-03-06T18:56:36.274Z,6.70
2023-03-06T18:59:05.278Z,4.37
2023-03-06T19:01:36.737Z,6.10
2023-03-06T19:04:08.118Z,7.23
2023-03-06T19:06:40.614Z,12.93
2023-03-06T19:09:09.484Z,10.03
2023-03-06T19:11:38.606Z,9.13
2023-03-06T19:14:06.767Z,12.73
2023-03-06T19:16:35.487Z,8.53
2023-03-06T19:19:03.221Z,16.13
2023-03-06T19:21:30.960Z,12.43
2023-03-06T19:24:04.467Z,10.43
2023-03-06T19:26:32.545Z,11.53
2023-03-06T19:29:03.888Z,12.47
2023-03-06T19:31:35.522Z,9.77
2023-03-06T19:34:03.334Z,13.63
2023-03-06T19:36:34.301Z,11.60
2023-03-06T19:39:06.509Z,10.73
2023-03-06T19:41:37.553Z,11.67
2023-03-06T19:44:06.837Z,12.43
2023-03-06T19:46:38.040Z,8.07
2023-03-06T19:49:11.737Z,7.90
2023-03-06T19:51:41.646Z,9.63
2023-03-06T19:54:12.602Z,9.18
2023-03-06T19:56:40.873Z,8.37
2023-03-06T19:59:12.233Z,8.80
2023-03-06T20:01:42.654Z,10.67
2023-03-06T20:06:39.090Z,8.77
2023-03-06T20:09:09.554Z,7.63
2023-03-06T20:14:08.560Z,11.13
2023-03-06T20:16:39.937Z,9.73
2023-03-06T20:19:08.654Z,8.80
2023-03-06T20:21:39.630Z,7.10
2023-03-06T20:24:10.392Z,7.33
2023-03-06T20:26:38.593Z,8.30
2023-03-06T20:29:10.061Z,8.47
2023-03-06T20:31:41.857Z,11.13
2023-03-06T20:34:09.617Z,15.60
2023-03-06T20:36:42.255Z,15.10
2023-03-06T20:39:13.998Z,23.77
2023-03-06T20:41:41.891Z,19.07
2023-03-06T20:44:13.504Z,26.63
2023-03-06T20:46:43.054Z,24.90
2023-03-06T20:49:12.667Z,22.27
2023-03-06T20:51:43.484Z,18.67
2023-03-06T20:54:15.210Z,14.07
2023-03-06T20:56:46.124Z,17.60
2023-03-06T20:59:14.719Z,18.70
2023-03-06T21:01:49.832Z,16.40
2023-03-06T21:04:18.210Z,14.50
2023-03-06T21:06:47.361Z,13.03
2023-03-06T21:09:18.428Z,14.03
2023-03-06T21:11:46.546Z,14.23
2023-03-06T21:14:14.532Z,10.57
2023-03-06T21:16:46.603Z,13.13
2023-03-06T21:19:14.872Z,14.60
2023-03-06T21:21:42.705Z,13.30
2023-03-06T21:24:12.655Z,14.70
2023-03-06T21:26:42.846Z,15.02
2023-03-06T21:29:10.531Z,18.05
2023-03-06T21:31:40.539Z,21.20
2023-03-06T21:34:11.609Z,18.30
2023-03-06T21:36:39.361Z,19.60
2023-03-06T21:39:35.162Z,22.00
2023-03-06T21:42:03.482Z,23.57
2023-03-06T21:44:31.195Z,29.43
2023-03-06T21:47:03.033Z,23.87
2023-03-06T21:49:32.198Z,25.90
2023-03-06T21:51:59.981Z,26.43
2023-03-06T21:54:29.312Z,27.47
2023-03-06T21:56:57.589Z,26.60
2023-03-06T21:59:25.342Z,28.53
2023-03-06T22:01:53.130Z,30.03
2023-03-06T22:04:20.986Z,31.23
2023-03-06T22:06:50.171Z,29.87
2023-03-06T22:09:20.099Z,32.67
2023-03-06T22:11:47.969Z,30.75
2023-03-06T22:14:15.797Z,29.37
2023-03-06T22:16:47.721Z,26.03
2023-03-06T22:19:15.634Z,31.17
2023-03-06T22:21:43.352Z,27.10
2023-03-06T22:24:16.252Z,26.80
2023-03-06T22:26:43.996Z,23.37
2023-03-06T22:29:11.767Z,23.33
2023-03-06T22:31:40.469Z,24.10
2023-03-06T22:34:08.288Z,23.13
2023-03-06T22:36:36.177Z,23.80
2023-03-06T22:39:06.165Z,20.23
2023-03-06T22:41:35.223Z,22.15
2023-03-06T22:44:03.261Z,18.33
2023-03-06T22:46:40.178Z,20.60
2023-03-06T22:49:07.980Z,19.53
2023-03-06T22:51:38.499Z,17.75
2023-03-06T22:54:09.244Z,22.65
2023-03-06T22:56:38.659Z,16.80
2023-03-06T22:59:08.637Z,16.25
2023-03-06T23:01:38.294Z,15.00
2023-03-06T23:04:11.004Z,17.95
2023-03-06T23:06:44.820Z,16.73
2023-03-06T23:09:16.047Z,14.43
2023-03-06T23:11:48.889Z,13.90
2023-03-06T23:14:18.260Z,13.98
2023-03-06T23:16:46.356Z,11.80
2023-03-06T23:19:18.176Z,17.67
2023-03-06T23:21:45.908Z,16.42
2023-03-06T23:24:13.803Z,16.77
2023-03-06T23:26:46.900Z,12.38
2023-03-06T23:29:16.968Z,11.32
2023-03-06T23:31:46.969Z,11.40
2023-03-06T23:34:16.557Z,13.13
2023-03-06T23:36:44.286Z,11.50
2023-03-06T23:39:14.252Z,15.05
2023-03-06T23:41:43.969Z,12.25
2023-03-06T23:44:13.088Z,18.75
2023-03-06T23:46:43.000Z,13.60
2023-03-06T23:49:12.676Z,12.18
2023-03-06T23:51:40.530Z,13.18
2023-03-06T23:54:11.652Z,16.30
2023-03-06T23:56:45.057Z,17.40
2023-03-06T23:59:16.155Z,15.02
